createdAt,value
2023-04-16T00:00:14.337Z,92.00
2023-04-16T00:01:14.322Z,92.82
2023-04-16T00:02:14.376Z,93.02
2023-04-16T00:03:14.448Z,92.82
2023-04-16T00:04:14.333Z,92.51
2023-04-16T00:05:14.240Z,93.02
2023-04-16T00:06:14.278Z,92.93
2023-04-16T00:07:14.246Z,92.72
2023-04-16T00:08:14.246Z,91.28
2023-04-16T00:09:14.208Z,91.90
2023-04-16T00:10:14.216Z,92.41
2023-04-16T00:11:14.174Z,91.69
2023-04-16T00:12:14.193Z,92.61
2023-04-16T00:13:14.181Z,92.51
2023-04-16T00:14:14.175Z,91.49
2023-04-16T00:15:14.150Z,92.10
2023-04-16T00:16:14.211Z,92.51
2023-04-16T00:17:14.156Z,92.61
2023-04-16T00:18:14.122Z,91.90
2023-04-16T00:19:14.159Z,91.49
2023-04-16T00:20:14.103Z,91.08
2023-04-16T00:21:14.070Z,91.38
2023-04-16T00:22:14.088Z,91.59
2023-04-16T00:23:14.067Z,92.82
2023-04-16T00:24:14.055Z,92.93
2023-04-16T00:25:14.056Z,92.72
2023-04-16T00:26:14.026Z,92.31
2023-04-16T00:27:14.059Z,91.38
2023-04-16T00:28:14.012Z,91.18
2023-04-16T00:29:13.988Z,91.28
2023-04-16T00:30:13.999Z,92.72
2023-04-16T00:31:14.068Z,91.49
2023-04-16T00:32:13.967Z,91.80
2023-04-16T00:33:13.940Z,92.10
2023-04-16T00:34:13.950Z,90.67
2023-04-16T00:35:13.948Z,91.59
2023-04-16T00:36:13.962Z,92.31
2023-04-16T00:37:14.045Z,93.23
2023-04-16T00:38:13.905Z,92.61
2023-04-16T00:39:13.901Z,92.00
2023-04-16T00:40:13.884Z,91.28
2023-04-16T00:41:13.936Z,91.49
2023-04-16T00:42:13.847Z,93.02
2023-04-16T00:43:13.882Z,92.10
2023-04-16T00:44:13.827Z,91.80
2023-04-16T00:45:13.834Z,91.38
2023-04-16T00:46:13.859Z,92.61
2023-04-16T00:47:13.866Z,92.31
2023-04-16T00:48:13.813Z,91.49
2023-04-16T00:49:13.832Z,91.28
2023-04-16T00:50:13.769Z,92.41
2023-04-16T00:51:13.791Z,91.49
2023-04-16T00:52:13.749Z,92.41
2023-04-16T00:53:13.779Z,92.93
2023-04-16T00:54:13.717Z,91.69
2023-04-16T00:55:13.767Z,93.44
2023-04-16T00:56:13.701Z,92.61
2023-04-16T00:57:13.713Z,91.59
2023-04-16T00:58:13.696Z,92.00
2023-04-16T00:59:13.684Z,91.49
2023-04-16T01:00:13.656Z,92.10
2023-04-16T01:01:13.718Z,92.61
2023-04-16T01:02:13.771Z,92.72
2023-04-16T01:03:13.791Z,92.82
2023-04-16T01:04:13.736Z,93.33
2023-04-16T01:05:13.632Z,92.41
2023-04-16T01:06:13.606Z,92.41
2023-04-16T01:07:13.603Z,92.41
2023-04-16T01:08:13.582Z,91.80
2023-04-16T01:09:13.608Z,91.80
2023-04-16T01:10:13.596Z,91.69
2023-04-16T01:11:13.564Z,91.59
2023-04-16T01:12:13.536Z,92.00
2023-04-16T01:13:13.540Z,92.31
2023-04-16T01:14:13.514Z,92.21
2023-04-16T01:15:13.524Z,92.61
2023-04-16T01:16:13.558Z,92.00
2023-04-16T01:17:13.495Z,92.72
2023-04-16T01:18:13.463Z,91.49
2023-04-16T01:19:13.473Z,92.00
2023-04-16T01:20:13.457Z,93.23
2023-04-16T01:21:13.459Z,93.23
2023-04-16T01:22:13.454Z,92.51
2023-04-16T01:23:13.437Z,93.74
2023-04-16T01:24:13.412Z,92.72
2023-04-16T01:25:13.415Z,91.18
2023-04-16T01:26:13.393Z,92.00
2023-04-16T01:27:13.385Z,91.59
2023-04-16T01:28:13.420Z,91.38
2023-04-16T01:29:13.371Z,92.10
2023-04-16T06:00:57.309Z,89.75
2023-04-16T06:01:58.338Z,90.67
2023-04-16T06:02:58.377Z,91.18
2023-04-16T06:03:58.338Z,91.69
2023-04-16T06:04:58.240Z,91.59
2023-04-16T06:05:58.374Z,91.28
2023-04-16T06:06:58.240Z,90.77
2023-04-16T06:07:58.209Z,91.38
2023-04-16T06:08:58.239Z,91.69
2023-04-16T06:09:58.216Z,91.59
2023-04-16T06:10:58.198Z,92.00
2023-04-16T06:11:58.190Z,91.80
2023-04-16T06:12:58.201Z,92.21
2023-04-16T06:13:58.160Z,92.51
2023-04-16T06:14:58.146Z,92.31
2023-04-16T06:15:58.186Z,92.61
2023-04-16T06:16:58.134Z,92.31
2023-04-16T06:18:00.256Z,92.82
2023-04-16T06:18:58.120Z,93.13
2023-04-16T06:19:58.086Z,93.44
2023-04-16T06:20:58.092Z,93.64
2023-04-16T06:21:58.074Z,92.31
2023-04-16T06:22:58.073Z,93.33
2023-04-16T06:23:58.043Z,93.85
2023-04-16T06:24:58.055Z,92.61
2023-04-16T06:25:58.018Z,93.23
2023-04-16T06:26:58.029Z,93.64
2023-04-16T06:27:58.000Z,93.23
2023-04-16T06:28:58.013Z,93.02
2023-04-16T06:29:57.985Z,92.82
2023-04-16T06:30:58.001Z,93.23
2023-04-16T06:31:57.964Z,94.36
2023-04-16T06:32:57.973Z,93.13
2023-04-16T06:33:57.939Z,93.13
2023-04-16T06:34:57.931Z,93.74
2023-04-16T06:35:57.922Z,93.44
2023-04-16T06:36:57.930Z,94.46
2023-04-16T06:37:57.900Z,94.26
2023-04-16T06:38:57.896Z,94.05
2023-04-16T06:39:57.874Z,93.85
2023-04-16T06:40:57.886Z,94.87
2023-04-16T06:41:57.851Z,95.39
2023-04-16T06:42:57.875Z,94.05
2023-04-16T06:43:57.845Z,94.77
2023-04-16T06:44:57.844Z,95.18
2023-04-16T06:45:57.798Z,94.87
2023-04-16T06:46:57.826Z,94.46
2023-04-16T06:47:57.841Z,93.89
2023-04-16T06:48:57.824Z,94.71
2023-04-16T06:49:57.765Z,94.81
2023-04-16T06:50:57.769Z,94.40
2023-04-16T06:51:57.773Z,94.30
2023-04-16T06:52:57.750Z,95.02
2023-04-16T06:53:57.899Z,95.64
2023-04-16T06:54:57.751Z,94.71
2023-04-16T06:55:57.707Z,94.61
2023-04-16T06:56:57.712Z,95.12
2023-04-16T06:57:57.677Z,95.59
2023-04-16T06:58:57.664Z,95.59
2023-04-16T06:59:57.685Z,95.59
2023-04-16T07:00:57.730Z,95.79
2023-04-16T07:01:57.777Z,95.53
2023-04-16T07:02:58.757Z,95.12
2023-04-16T07:03:57.757Z,95.84
2023-04-16T07:04:57.598Z,95.94
2023-04-16T07:05:57.605Z,96.25
2023-04-16T07:06:57.600Z,96.25
2023-04-16T07:07:57.618Z,96.45
2023-04-16T07:08:57.577Z,96.00
2023-04-16T07:09:57.572Z,95.69
2023-04-16T07:10:57.532Z,95.59
2023-04-16T07:11:57.605Z,95.79
2023-04-16T07:12:57.538Z,96.35
2023-04-16T07:13:57.520Z,96.04
2023-04-16T07:14:57.494Z,95.32
2023-04-16T07:15:57.498Z,96.35
2023-04-16T07:16:57.501Z,96.66
2023-04-16T07:17:57.568Z,96.45
2023-04-16T07:18:57.448Z,96.00
2023-04-16T07:19:57.466Z,95.53
2023-04-16T07:20:57.424Z,95.43
2023-04-16T07:21:57.431Z,94.87
2023-04-16T07:22:57.410Z,95.94
2023-04-16T07:23:57.428Z,95.23
2023-04-16T07:24:57.413Z,95.28
2023-04-16T07:25:57.425Z,95.28
2023-04-16T07:26:57.371Z,94.56
2023-04-16T07:27:57.373Z,95.02
2023-04-16T07:28:57.347Z,94.67
2023-04-16T07:29:57.382Z,95.02
2023-04-16T07:30:57.327Z,95.32
2023-04-16T07:31:57.334Z,95.49
2023-04-16T07:32:57.337Z,95.49
2023-04-16T07:33:57.306Z,95.18
2023-04-16T07:34:57.281Z,94.46
2023-04-16T07:35:57.307Z,94.26
2023-04-16T07:36:57.276Z,94.46
2023-04-16T07:37:57.275Z,94.46
2023-04-16T07:38:57.238Z,94.46
2023-04-16T07:39:57.412Z,94.87
2023-04-16T07:40:57.246Z,96.10
2023-04-16T07:41:57.314Z,94.26
2023-04-16T07:42:57.269Z,94.46
2023-04-16T07:43:57.214Z,94.67
2023-04-16T07:44:57.177Z,94.98
2023-04-16T07:45:57.190Z,94.46
2023-04-16T07:46:57.266Z,94.36
2023-04-16T07:47:57.215Z,93.44
2023-04-16T07:48:57.185Z,93.64
2023-04-16T07:49:57.227Z,94.15
2023-04-16T07:50:57.180Z,95.07
2023-04-16T07:51:57.115Z,94.15
2023-04-16T07:52:57.138Z,94.15
2023-04-16T07:53:57.122Z,93.95
2023-04-16T07:54:57.087Z,94.56
2023-04-16T07:55:57.088Z,94.26
2023-04-16T07:56:57.071Z,93.90
2023-04-16T07:57:57.066Z,94.42
2023-04-16T07:58:58.328Z,94.21
2023-04-16T07:59:57.020Z,94.42
2023-04-16T08:00:57.019Z,94.62
2023-04-16T08:01:57.039Z,94.11
2023-04-16T08:02:57.118Z,94.11
2023-04-16T08:03:57.171Z,94.11
2023-04-16T08:04:57.025Z,94.52
2023-04-16T08:05:56.995Z,93.60
2023-04-16T08:06:56.961Z,94.11
2023-04-16T08:07:56.967Z,93.19
2023-04-16T08:08:56.949Z,93.96
2023-04-16T08:09:56.931Z,93.55
2023-04-16T08:10:56.895Z,94.58
2023-04-16T08:11:56.922Z,94.07
2023-04-16T08:12:56.915Z,94.27
2023-04-16T08:13:56.902Z,93.76
2023-04-16T08:14:56.877Z,93.04
2023-04-16T08:15:56.929Z,93.86
2023-04-16T08:16:56.863Z,93.15
2023-04-16T08:17:56.921Z,93.45
2023-04-16T08:18:56.844Z,92.74
2023-04-16T08:19:56.831Z,93.04
2023-04-16T08:20:56.954Z,92.74
2023-04-16T08:21:56.803Z,93.15
2023-04-16T08:22:56.986Z,92.02
2023-04-16T08:23:56.786Z,92.02
2023-04-16T08:24:56.784Z,92.22
2023-04-16T08:25:56.770Z,91.91
2023-04-16T08:27:02.427Z,92.53
2023-04-16T08:27:56.729Z,92.74
2023-04-16T08:28:56.705Z,92.74
2023-04-16T08:29:56.709Z,92.12
2023-04-16T08:30:56.751Z,91.20
2023-04-16T08:31:56.733Z,91.71
2023-04-16T08:32:56.770Z,91.71
2023-04-16T08:33:56.688Z,90.37
2023-04-16T08:34:56.647Z,91.91
2023-04-16T08:35:56.652Z,91.40
2023-04-16T08:36:56.627Z,92.28
2023-04-16T08:37:56.632Z,91.46
2023-04-16T08:38:56.633Z,92.69
2023-04-16T08:39:56.608Z,91.87
2023-04-16T08:40:56.583Z,92.90
2023-04-16T08:41:56.594Z,91.77
2023-04-16T08:42:56.558Z,91.05
2023-04-16T08:43:56.570Z,91.46
2023-04-16T08:44:56.558Z,91.67
2023-04-16T08:45:56.556Z,91.77
2023-04-16T08:46:56.557Z,91.97
2023-04-16T08:47:56.547Z,91.56
2023-04-16T08:48:56.497Z,91.36
2023-04-16T08:49:58.298Z,91.77
2023-04-16T08:50:56.663Z,91.87
2023-04-16T08:51:56.559Z,92.28
2023-04-16T08:52:56.455Z,91.97
2023-04-16T08:53:56.456Z,92.28
2023-04-16T08:54:57.255Z,91.97
2023-04-16T08:55:56.463Z,92.38
2023-04-16T08:56:56.414Z,92.28
2023-04-16T08:57:56.421Z,91.46
2023-04-16T08:58:56.406Z,91.36
2023-04-16T08:59:56.392Z,91.46
2023-04-16T09:00:56.364Z,91.16
2023-04-16T09:01:56.478Z,90.84
2023-04-16T09:02:56.525Z,90.60
2023-04-16T09:03:56.510Z,90.09
2023-04-16T09:04:56.454Z,91.22
2023-04-16T09:05:56.333Z,91.63
2023-04-16T09:06:56.306Z,91.73
2023-04-16T09:07:56.334Z,91.22
2023-04-16T09:08:57.420Z,91.52
2023-04-16T09:09:56.311Z,90.39
2023-04-16T09:10:56.258Z,91.11
2023-04-16T09:11:56.306Z,91.01
2023-04-16T09:12:56.237Z,91.42
2023-04-16T09:13:56.273Z,91.22
2023-04-16T09:14:56.220Z,90.19
2023-04-16T09:15:56.300Z,90.09
2023-04-16T09:16:56.225Z,91.42
2023-04-16T09:17:56.403Z,90.81
2023-04-16T09:18:56.207Z,90.60
2023-04-16T09:19:56.278Z,91.73
2023-04-16T09:20:56.184Z,90.30
2023-04-16T09:21:56.163Z,90.09
2023-04-16T09:22:56.172Z,89.58
2023-04-16T09:23:56.178Z,90.60
2023-04-16T09:24:56.192Z,90.39
2023-04-16T09:25:56.166Z,91.17
2023-04-16T09:26:56.097Z,91.78
2023-04-16T09:27:56.121Z,90.77
2023-04-16T09:28:56.092Z,90.05
2023-04-16T09:29:56.161Z,90.86
2023-04-16T09:30:56.048Z,90.36
2023-04-16T09:31:56.071Z,90.36
2023-04-16T09:32:56.059Z,90.86
2023-04-16T09:33:56.059Z,90.56
2023-04-16T09:34:56.064Z,91.58
2023-04-16T09:35:56.026Z,90.77
2023-04-16T09:36:56.046Z,90.66
2023-04-16T09:37:56.017Z,89.64
2023-04-16T09:38:57.720Z,89.23
2023-04-16T09:39:55.992Z,89.64
2023-04-16T09:40:55.954Z,90.97
2023-04-16T09:41:56.001Z,89.74
2023-04-16T09:42:55.924Z,89.03
2023-04-16T09:43:55.946Z,88.71
2023-04-16T09:44:58.744Z,88.71
2023-04-16T09:45:55.981Z,89.18
2023-04-16T09:46:55.904Z,88.98
2023-04-16T09:47:55.954Z,88.98
2023-04-16T09:48:56.107Z,89.29
2023-04-16T09:49:55.860Z,89.29
2023-04-16T09:50:55.848Z,88.88
2023-04-16T09:51:55.904Z,89.18
2023-04-16T09:52:55.817Z,88.98
2023-04-16T09:53:55.831Z,88.68
2023-04-16T09:54:55.821Z,88.98
2023-04-16T09:55:55.832Z,88.26
2023-04-16T09:56:55.846Z,89.29
2023-04-16T09:57:55.816Z,88.78
2023-04-16T09:58:55.754Z,88.37
2023-04-16T09:59:55.762Z,88.47
2023-04-16T10:00:55.770Z,87.65
2023-04-16T10:02:14.354Z,87.35
2023-04-16T10:02:55.950Z,88.88
2023-04-16T10:03:55.873Z,89.18
2023-04-16T10:04:55.805Z,88.98
2023-04-16T10:05:55.706Z,88.68
2023-04-16T10:06:55.668Z,88.06
2023-04-16T10:07:55.686Z,88.57
2023-04-16T10:08:55.654Z,88.78
2023-04-16T10:09:55.685Z,89.39
2023-04-16T10:10:55.686Z,88.06
2023-04-16T10:11:55.625Z,87.96
2023-04-16T10:12:55.623Z,88.88
2023-04-16T10:13:55.618Z,88.78
2023-04-16T10:14:55.592Z,87.24
2023-04-16T10:15:55.614Z,87.65
2023-04-16T10:16:55.653Z,87.85
2023-04-16T10:17:55.622Z,88.37
2023-04-16T10:18:55.600Z,88.37
2023-04-16T10:19:55.556Z,87.76
2023-04-16T10:20:55.523Z,87.65
2023-04-16T10:21:55.575Z,90.31
2023-04-16T10:22:55.506Z,89.80
2023-04-16T10:23:55.515Z,87.85
2023-04-16T10:24:55.481Z,87.96
2023-04-16T10:25:57.464Z,86.53
2023-04-16T10:26:55.478Z,88.37
2023-04-16T10:27:55.573Z,88.57
2023-04-16T10:28:55.470Z,88.78
2023-04-16T10:29:55.473Z,88.57
2023-04-16T10:30:56.321Z,89.09
2023-04-16T10:31:55.485Z,87.45
2023-04-16T10:32:55.633Z,88.47
2023-04-16T10:33:55.438Z,89.18
2023-04-16T10:34:55.405Z,88.68
2023-04-16T10:36:06.790Z,88.74
2023-04-16T10:36:55.366Z,88.17
2023-04-16T10:37:55.355Z,89.15
2023-04-16T10:38:55.356Z,88.53
2023-04-16T10:39:55.379Z,88.57
2023-04-16T10:40:56.336Z,88.64
2023-04-16T10:41:55.319Z,89.04
2023-04-16T10:42:55.296Z,88.84
2023-04-16T10:43:55.305Z,89.65
2023-04-16T10:44:55.294Z,88.53
2023-04-16T10:45:55.327Z,89.76
2023-04-16T10:46:55.247Z,88.84
2023-04-16T10:47:55.309Z,88.84
2023-04-16T10:48:55.283Z,87.00
2023-04-16T10:49:55.236Z,88.84
2023-04-16T10:50:55.216Z,89.76
2023-04-16T10:51:55.252Z,89.86
2023-04-16T10:52:55.202Z,88.74
2023-04-16T10:53:55.181Z,88.23
2023-04-16T10:54:55.239Z,89.04
2023-04-16T10:55:55.188Z,89.76
2023-04-16T10:56:55.157Z,90.17
2023-04-16T10:57:55.169Z,91.39
2023-04-16T10:58:55.167Z,89.76
2023-04-16T10:59:55.136Z,90.78
2023-04-16T11:00:55.109Z,89.76
2023-04-16T11:01:55.207Z,89.56
2023-04-16T11:02:55.248Z,88.74
2023-04-16T11:03:55.206Z,90.17
2023-04-16T11:04:55.157Z,90.58
2023-04-16T11:05:55.050Z,90.99
2023-04-16T11:06:55.038Z,90.99
2023-04-16T11:07:55.090Z,90.58
2023-04-16T11:08:55.510Z,90.37
2023-04-16T11:09:55.033Z,89.65
2023-04-16T11:10:54.988Z,91.09
2023-04-16T11:11:55.049Z,91.09
2023-04-16T11:12:54.966Z,90.99
2023-04-16T11:13:54.999Z,89.97
2023-04-16T11:14:54.970Z,91.09
2023-04-16T11:15:54.993Z,91.09
2023-04-16T11:16:54.996Z,90.78
2023-04-16T11:17:54.920Z,91.39
2023-04-16T11:18:56.794Z,91.50
2023-04-16T11:19:54.895Z,91.09
2023-04-16T11:20:54.905Z,91.80
2023-04-16T11:21:54.868Z,92.21
2023-04-16T11:22:54.970Z,92.52
2023-04-16T11:23:54.851Z,91.39
2023-04-16T11:24:54.856Z,92.32
2023-04-16T11:25:54.847Z,92.42
2023-04-16T11:26:54.843Z,92.36
2023-04-16T11:27:54.963Z,92.56
2023-04-16T11:28:54.856Z,93.03
2023-04-16T11:29:54.802Z,92.83
2023-04-16T11:30:54.807Z,92.62
2023-04-16T11:31:54.798Z,92.72
2023-04-16T11:32:54.817Z,92.93
2023-04-16T11:33:54.733Z,92.72
2023-04-16T11:34:55.038Z,93.24
2023-04-16T11:35:54.722Z,93.13
2023-04-16T11:36:54.746Z,93.74
2023-04-16T11:37:54.699Z,93.54
2023-04-16T11:38:54.721Z,94.26
2023-04-16T11:39:54.709Z,94.56
2023-04-16T11:40:54.718Z,93.95
2023-04-16T11:41:54.665Z,94.06
2023-04-16T11:42:54.673Z,94.46
2023-04-16T11:43:54.645Z,94.46
2023-04-16T11:44:54.648Z,94.77
2023-04-16T11:45:54.626Z,94.73
2023-04-16T11:46:54.680Z,94.42
2023-04-16T11:47:54.626Z,94.11
2023-04-16T11:48:54.618Z,94.11
2023-04-16T11:49:54.574Z,93.70
2023-04-16T11:50:54.604Z,94.32
2023-04-16T11:51:54.579Z,94.93
2023-04-16T11:52:54.556Z,94.82
2023-04-16T11:53:54.594Z,94.62
2023-04-16T11:54:54.538Z,94.62
2023-04-16T11:55:54.517Z,93.50
2023-04-16T11:56:54.524Z,94.52
2023-04-16T11:57:54.504Z,94.52
2023-04-16T11:58:54.482Z,93.80
2023-04-16T12:00:02.028Z,94.21
2023-04-16T12:00:54.477Z,94.42
2023-04-16T12:01:54.518Z,94.11
2023-04-16T12:02:54.703Z,94.21
2023-04-16T12:03:54.856Z,93.50
2023-04-16T12:04:54.466Z,94.11
2023-04-16T12:05:54.548Z,94.27
2023-04-16T12:06:54.404Z,94.21
2023-04-16T12:07:54.388Z,93.25
2023-04-16T12:08:54.412Z,93.70
2023-04-16T12:09:54.372Z,93.05
2023-04-16T12:10:54.358Z,93.96
2023-04-16T12:11:54.329Z,94.17
2023-04-16T12:12:54.345Z,93.45
2023-04-16T12:13:54.320Z,93.45
2023-04-16T12:14:54.364Z,93.96
2023-04-16T12:15:54.309Z,94.07
2023-04-16T12:16:54.323Z,93.35
2023-04-16T12:17:54.339Z,93.86
2023-04-16T12:18:54.312Z,94.07
2023-04-16T12:19:54.265Z,93.55
2023-04-16T12:20:54.324Z,94.07
2023-04-16T12:21:54.280Z,93.96
2023-04-16T12:22:54.236Z,93.96
2023-04-16T12:23:54.227Z,93.86
2023-04-16T12:24:54.240Z,94.48
2023-04-16T12:25:54.222Z,93.96
2023-04-16T12:26:54.219Z,93.15
2023-04-16T12:27:54.400Z,93.86
2023-04-16T12:28:54.163Z,93.76
2023-04-16T12:29:54.144Z,93.96
2023-04-16T12:30:54.200Z,93.76
2023-04-16T12:31:54.128Z,93.66
2023-04-16T12:32:55.504Z,93.62
2023-04-16T12:33:54.118Z,93.51
2023-04-16T12:34:54.115Z,92.80
2023-04-16T12:35:54.099Z,93.41
2023-04-16T12:36:54.089Z,93.00
2023-04-16T12:37:54.079Z,94.23
2023-04-16T12:38:54.098Z,94.02
2023-04-16T12:39:54.044Z,92.55
2023-04-16T12:40:54.075Z,92.35
2023-04-16T12:41:54.019Z,92.14
2023-04-16T12:42:54.031Z,92.24
2023-04-16T12:43:53.997Z,92.04
2023-04-16T12:44:54.029Z,92.45
2023-04-16T12:45:54.025Z,92.55
2023-04-16T12:46:53.985Z,92.86
2023-04-16T12:47:53.992Z,91.53
2023-04-16T12:48:53.955Z,92.24
2023-04-16T12:49:53.925Z,91.02
2023-04-16T12:50:53.975Z,91.12
2023-04-16T12:51:53.922Z,91.83
2023-04-16T12:52:53.951Z,92.14
2023-04-16T12:53:53.904Z,90.41
2023-04-16T12:54:53.905Z,90.67
2023-04-16T12:55:53.873Z,90.98
2023-04-16T12:56:53.938Z,91.39
2023-04-16T12:57:53.942Z,91.08
2023-04-16T12:58:53.851Z,90.26
2023-04-16T12:59:53.854Z,90.16
2023-04-16T13:00:53.845Z,90.67
2023-04-16T13:01:53.906Z,90.98
2023-04-16T13:02:54.030Z,89.75
2023-04-16T13:03:53.916Z,89.34
2023-04-16T13:04:53.828Z,90.67
2023-04-16T13:05:53.764Z,91.14
2023-04-16T13:06:53.785Z,89.92
2023-04-16T13:07:53.790Z,90.01
2023-04-16T13:08:53.762Z,88.39
2023-04-16T13:09:53.744Z,89.20
2023-04-16T13:10:53.733Z,88.18
2023-04-16T13:11:53.719Z,89.81
2023-04-16T13:12:53.721Z,89.40
2023-04-16T13:13:53.730Z,87.77
2023-04-16T13:14:53.740Z,88.79
2023-04-16T13:15:53.683Z,88.28
2023-04-16T13:16:53.691Z,87.77
2023-04-16T13:17:53.676Z,87.67
2023-04-16T13:18:53.638Z,88.08
2023-04-16T13:19:53.616Z,88.04
2023-04-16T13:20:53.671Z,87.12
2023-04-16T13:21:53.603Z,87.43
2023-04-16T13:22:53.604Z,87.12
2023-04-16T13:23:53.606Z,86.92
2023-04-16T13:24:53.588Z,87.12
2023-04-16T13:25:53.554Z,86.68
2023-04-16T13:26:53.595Z,85.96
2023-04-16T13:27:54.519Z,86.57
2023-04-16T13:28:53.540Z,87.79
2023-04-16T13:29:53.528Z,86.77
2023-04-16T13:30:53.554Z,86.88
2023-04-16T13:31:53.519Z,86.16
2023-04-16T13:32:53.528Z,85.41
2023-04-16T13:33:53.470Z,85.51
2023-04-16T13:34:53.466Z,85.31
2023-04-16T13:35:53.460Z,85.72
2023-04-16T13:36:53.436Z,85.72
2023-04-16T13:37:53.432Z,85.72
2023-04-16T13:38:53.427Z,84.80
2023-04-16T13:39:53.392Z,83.98
2023-04-16T13:40:53.446Z,84.70
2023-04-16T13:41:53.388Z,84.45
2023-04-16T13:42:53.400Z,83.78
2023-04-16T13:43:53.403Z,83.84
2023-04-16T13:44:53.359Z,84.15
2023-04-16T13:45:53.343Z,84.15
2023-04-16T13:46:53.431Z,82.82
2023-04-16T13:47:53.391Z,85.17
2023-04-16T13:48:53.325Z,85.58
2023-04-16T13:49:53.350Z,83.74
2023-04-16T13:50:53.303Z,85.06
2023-04-16T13:51:53.278Z,81.10
2023-04-16T13:52:53.301Z,83.44
2023-04-16T13:53:53.286Z,85.27
2023-04-16T13:54:53.244Z,84.25
2023-04-16T13:55:53.254Z,85.78
2023-04-16T13:56:53.258Z,85.03
2023-04-16T13:57:53.317Z,85.74
2023-04-16T13:58:53.209Z,84.56
2023-04-16T13:59:53.177Z,83.95
2023-04-16T14:00:53.252Z,84.05
2023-04-16T14:01:53.260Z,83.74
2023-04-16T14:02:53.351Z,83.74
2023-04-16T14:03:53.260Z,84.56
2023-04-16T14:04:53.151Z,85.37
2023-04-16T14:05:53.147Z,84.05
2023-04-16T14:06:53.126Z,83.23
2023-04-16T14:07:53.120Z,83.13
2023-04-16T14:08:53.126Z,84.05
2023-04-16T14:09:53.092Z,82.42
2023-04-16T14:10:53.926Z,84.66
2023-04-16T14:11:53.080Z,83.34
2023-04-16T14:12:53.055Z,84.05
2023-04-16T14:13:53.040Z,83.54
2023-04-16T14:14:53.046Z,84.76
2023-04-16T14:15:53.048Z,84.05
2023-04-16T14:16:53.039Z,85.27
2023-04-16T14:17:53.059Z,84.56
2023-04-16T14:18:53.060Z,83.44
2023-04-16T14:19:52.980Z,84.97
2023-04-16T14:20:53.046Z,85.17
2023-04-16T14:21:52.954Z,86.08
2023-04-16T14:22:52.963Z,84.66
2023-04-16T14:23:52.934Z,84.29
2023-04-16T14:24:52.929Z,83.98
2023-04-16T14:25:52.914Z,84.70
2023-04-16T14:26:52.945Z,85.00
2023-04-16T14:27:52.897Z,86.13
2023-04-16T14:28:52.885Z,85.41
2023-04-16T14:29:52.864Z,84.19
2023-04-16T14:30:52.862Z,83.27
2023-04-16T14:31:52.898Z,84.19
2023-04-16T14:32:52.932Z,85.00
2023-04-16T14:33:52.880Z,85.14
2023-04-16T14:34:52.832Z,86.22
2023-04-16T14:35:52.798Z,85.96
2023-04-16T14:36:52.811Z,85.21
2023-04-16T14:37:52.770Z,85.14
2023-04-16T14:38:52.781Z,85.35
2023-04-16T14:39:52.800Z,84.03
2023-04-16T14:40:52.781Z,83.72
2023-04-16T14:41:52.727Z,84.33
2023-04-16T14:42:52.748Z,83.68
2023-04-16T14:43:52.713Z,84.29
2023-04-16T14:44:52.725Z,83.58
2023-04-16T14:45:52.922Z,82.66
2023-04-16T14:46:52.705Z,83.68
2023-04-16T14:47:52.705Z,85.41
2023-04-16T14:48:52.675Z,83.89
2023-04-16T14:49:52.674Z,80.93
2023-04-16T14:50:52.678Z,83.78
2023-04-16T14:51:52.644Z,83.07
2023-04-16T14:52:52.643Z,81.10
2023-04-16T14:53:52.623Z,82.21
2023-04-16T14:54:52.613Z,81.30
2023-04-16T14:55:52.740Z,83.44
2023-04-16T14:56:52.605Z,81.60
2023-04-16T14:57:52.576Z,83.64
2023-04-16T14:58:52.588Z,80.90
2023-04-16T14:59:52.581Z,81.10
2023-04-16T15:00:52.578Z,81.60
2023-04-16T15:01:52.551Z,83.44
2023-04-16T15:02:52.703Z,83.34
2023-04-16T15:03:52.788Z,82.59
2023-04-16T15:04:52.515Z,83.70
2023-04-16T15:05:52.476Z,81.77
2023-04-16T15:06:52.502Z,81.77
2023-04-16T15:07:52.616Z,80.65
2023-04-16T15:08:52.456Z,82.18
2023-04-16T15:09:52.460Z,81.87
2023-04-16T15:10:52.434Z,82.38
2023-04-16T15:11:52.434Z,81.46
2023-04-16T15:12:52.425Z,81.06
2023-04-16T15:13:52.418Z,80.96
2023-04-16T15:14:52.402Z,81.06
2023-04-16T15:15:52.389Z,78.52
2023-04-16T15:16:52.390Z,80.35
2023-04-16T15:17:52.406Z,80.55
2023-04-16T15:18:52.352Z,78.41
2023-04-16T15:19:52.360Z,79.13
2023-04-16T15:20:52.334Z,79.53
2023-04-16T15:21:52.307Z,79.84
2023-04-16T15:22:52.313Z,80.04
2023-04-16T15:23:52.285Z,81.87
2023-04-16T15:24:52.299Z,78.92
2023-04-16T15:25:52.304Z,78.52
2023-04-16T15:26:52.264Z,80.04
2023-04-16T15:27:52.241Z,81.06
2023-04-16T15:28:52.279Z,79.74
2023-04-16T15:29:52.236Z,80.76
2023-04-16T15:30:52.291Z,79.13
2023-04-16T15:31:52.232Z,82.28
2023-04-16T15:32:52.260Z,80.08
2023-04-16T15:33:52.213Z,83.13
2023-04-16T15:34:52.163Z,81.10
2023-04-16T15:35:52.184Z,79.16
2023-04-16T15:36:52.164Z,82.01
2023-04-16T15:37:52.183Z,81.10
2023-04-16T15:38:52.138Z,80.69
2023-04-16T15:39:52.158Z,80.73
2023-04-16T15:40:52.111Z,80.59
2023-04-16T15:42:52.087Z,81.44
2023-04-16T15:43:52.117Z,80.42
2023-04-16T15:44:52.064Z,80.93
2023-04-16T15:45:52.129Z,79.61
2023-04-16T15:46:52.045Z,80.02
2023-04-16T15:47:52.083Z,80.52
2023-04-16T15:48:52.029Z,78.59
2023-04-16T15:49:52.018Z,81.74
2023-04-16T15:50:52.021Z,81.65
2023-04-16T15:51:52.075Z,79.50
2023-04-16T15:52:51.973Z,81.24
2023-04-16T15:53:52.000Z,81.74
2023-04-16T15:54:51.974Z,81.54
2023-04-16T15:55:51.971Z,82.66
2023-04-16T15:56:51.941Z,81.95
2023-04-16T15:57:51.978Z,79.41
2023-04-16T15:58:51.919Z,81.74
2023-04-16T16:00:05.856Z,81.04
2023-04-16T16:00:51.890Z,82.97
2023-04-16T16:01:51.943Z,80.52
2023-04-16T16:02:52.031Z,80.11
2023-04-16T16:03:52.155Z,80.83
2023-04-16T16:04:51.938Z,81.04
2023-04-16T16:05:51.889Z,81.54
2023-04-16T16:06:51.823Z,81.04
2023-04-16T16:07:51.833Z,80.83
2023-04-16T16:08:51.804Z,80.32
2023-04-16T16:09:51.878Z,79.10
2023-04-16T16:10:51.778Z,79.00
2023-04-16T16:11:51.785Z,82.56
2023-04-16T16:12:51.774Z,81.44
2023-04-16T16:13:51.784Z,80.83
2023-04-16T16:14:51.752Z,79.50
2023-04-16T16:15:51.810Z,79.91
2023-04-16T16:16:51.723Z,79.44
2023-04-16T16:17:51.769Z,80.77
2023-04-16T16:18:51.713Z,79.64
2023-04-16T16:19:51.721Z,80.66
2023-04-16T16:20:51.678Z,78.22
2023-04-16T16:21:51.727Z,80.97
2023-04-16T16:22:51.663Z,80.36
2023-04-16T16:23:51.664Z,81.68
2023-04-16T16:24:51.656Z,80.46
2023-04-16T16:25:51.663Z,82.80
2023-04-16T16:26:51.620Z,81.27
2023-04-16T16:27:51.629Z,81.27
2023-04-16T16:28:51.636Z,82.90
2023-04-16T16:29:51.620Z,82.80
2023-04-16T16:30:51.565Z,81.38
2023-04-16T16:31:51.689Z,81.58
2023-04-16T16:32:51.726Z,82.90
2023-04-16T16:33:51.581Z,79.48
2023-04-16T16:34:51.529Z,78.87
2023-04-16T16:35:51.543Z,81.31
2023-04-16T16:36:51.520Z,80.50
2023-04-16T16:37:51.541Z,80.40
2023-04-16T16:38:51.486Z,81.31
2023-04-16T16:39:51.498Z,82.13
2023-04-16T16:40:51.480Z,82.13
2023-04-16T16:41:51.461Z,81.82
2023-04-16T16:42:51.486Z,83.04
2023-04-16T16:43:51.478Z,81.52
2023-04-16T16:44:51.408Z,79.38
2023-04-16T16:45:51.416Z,81.82
2023-04-16T16:46:51.405Z,79.89
2023-04-16T16:47:51.427Z,79.58
2023-04-16T16:48:51.394Z,82.54
2023-04-16T16:49:51.404Z,80.80
2023-04-16T16:50:51.349Z,80.70
2023-04-16T16:51:51.354Z,81.21
2023-04-16T16:52:51.338Z,81.62
2023-04-16T16:53:51.347Z,82.33
2023-04-16T16:54:51.302Z,82.23
2023-04-16T16:55:51.351Z,82.37
2023-04-16T16:56:51.280Z,82.37
2023-04-16T16:57:51.291Z,82.68
2023-04-16T16:58:51.261Z,82.88
2023-04-16T16:59:51.270Z,82.27
2023-04-16T17:00:51.268Z,82.47
2023-04-16T17:01:51.318Z,83.49
2023-04-16T17:02:51.530Z,79.52
2023-04-16T17:03:51.307Z,82.27
2023-04-16T17:04:51.213Z,80.43
2023-04-16T17:05:51.212Z,80.43
2023-04-16T17:06:51.251Z,83.09
2023-04-16T17:07:51.226Z,83.39
2023-04-16T17:08:51.169Z,82.27
2023-04-16T17:09:51.185Z,82.27
2023-04-16T17:10:51.147Z,80.84
2023-04-16T17:11:51.160Z,81.56
2023-04-16T17:12:51.134Z,82.68
2023-04-16T17:13:51.176Z,81.76
2023-04-16T17:14:51.110Z,82.37
2023-04-16T17:15:51.118Z,84.41
2023-04-16T17:16:51.107Z,82.27
2023-04-16T17:17:51.191Z,81.76
2023-04-16T17:18:51.062Z,81.15
2023-04-16T17:19:51.123Z,82.68
2023-04-16T17:20:51.036Z,84.41
2023-04-16T17:21:51.103Z,84.00
2023-04-16T17:22:51.041Z,83.90
2023-04-16T17:23:51.035Z,82.78